createdAt,value
2023-01-22T00:02:02.081Z,0.06
2023-01-22T00:07:06.674Z,-0.04
2023-01-22T00:12:11.649Z,-0.07
2023-01-22T00:17:17.880Z,-0.06
2023-01-22T00:22:22.562Z,-0.10
2023-01-22T00:27:26.899Z,-0.11
2023-01-22T00:32:32.833Z,-0.12
2023-01-22T00:37:37.570Z,-0.11
2023-01-22T00:42:42.880Z,-0.16
2023-01-22T00:47:49.324Z,-0.20
2023-01-22T00:52:53.742Z,-0.20
2023-01-22T00:57:58.026Z,-0.24
2023-01-22T01:03:21.294Z,-0.26
2023-01-22T01:08:26.904Z,-0.28
2023-01-22T01:13:34.571Z,-0.29
2023-01-22T01:18:41.787Z,-0.27
2023-01-22T01:23:46.709Z,-0.24
2023-01-22T01:28:52.505Z,-0.23
2023-01-22T01:33:59.152Z,-0.27
2023-01-22T01:39:05.330Z,-0.27
2023-01-22T01:44:16.156Z,-0.31
2023-01-22T01:49:29.951Z,-0.24
2023-01-22T01:54:35.357Z,-0.22
2023-01-22T01:59:40.883Z,-0.31
2023-01-22T02:04:46.937Z,-0.31
2023-01-22T02:09:51.668Z,-0.24
2023-01-22T02:14:56.645Z,-0.21
2023-01-22T02:20:02.396Z,-0.27
2023-01-22T02:25:09.874Z,-0.33
2023-01-22T02:30:16.654Z,-0.37
2023-01-22T02:35:21.328Z,-0.33
2023-01-22T02:40:29.904Z,-0.31
2023-01-22T02:45:35.966Z,-0.29
2023-01-22T02:50:40.656Z,-0.21
2023-01-22T02:55:47.130Z,-0.17
2023-01-22T03:00:52.138Z,-0.22
2023-01-22T03:05:56.815Z,-0.13
2023-01-22T03:11:02.470Z,-0.21
2023-01-22T03:16:25.390Z,-0.25
2023-01-22T03:21:30.328Z,-0.28
2023-01-22T03:26:37.624Z,-0.37
2023-01-22T03:31:42.058Z,-0.38
2023-01-22T03:36:47.708Z,-0.44
2023-01-22T03:41:54.236Z,-0.31
2023-01-22T03:46:59.456Z,-0.35
2023-01-22T03:52:05.158Z,-0.35
2023-01-22T03:57:11.278Z,-0.27
2023-01-22T04:02:18.094Z,-0.38
2023-01-22T04:07:40.175Z,-0.46
2023-01-22T04:12:46.079Z,-0.48
2023-01-22T04:17:52.912Z,-0.43
2023-01-22T04:23:18.695Z,-0.38
2023-01-22T04:28:24.594Z,-0.29
2023-01-22T04:33:31.963Z,-0.36
2023-01-22T04:38:46.957Z,-0.39
2023-01-22T04:43:53.161Z,-0.45
2023-01-22T04:48:59.707Z,-0.36
2023-01-22T04:54:04.573Z,-0.33
2023-01-22T04:59:11.546Z,-0.33
2023-01-22T05:04:16.707Z,-0.27
2023-01-22T05:09:21.218Z,-0.30
2023-01-22T05:14:32.439Z,-0.37
2023-01-22T05:19:38.936Z,-0.34
2023-01-22T05:24:48.623Z,-0.27
2023-01-22T05:29:54.555Z,-0.32
2023-01-22T05:35:13.960Z,-0.35
2023-01-22T05:40:19.257Z,-0.37
2023-01-22T05:45:25.951Z,-0.41
2023-01-22T05:50:56.685Z,-0.38
2023-01-22T05:56:02.754Z,-0.47
2023-01-22T06:01:13.538Z,-0.47
2023-01-22T06:06:22.582Z,-0.51
2023-01-22T06:11:27.685Z,-0.48
2023-01-22T06:16:33.346Z,-0.41
2023-01-22T06:21:45.818Z,-0.40
2023-01-22T06:26:50.858Z,-0.43
2023-01-22T06:31:59.375Z,-0.39
2023-01-22T06:37:04.223Z,-0.47
2023-01-22T06:42:11.675Z,-0.44
2023-01-22T06:47:17.465Z,-0.32
2023-01-22T06:52:22.465Z,-0.39
2023-01-22T06:57:26.837Z,-0.30
2023-01-22T07:02:32.652Z,-0.34
2023-01-22T07:07:37.007Z,-0.25
2023-01-22T07:12:41.628Z,-0.19
2023-01-22T07:17:51.107Z,-0.16
2023-01-22T07:23:00.159Z,-0.21
2023-01-22T07:28:07.060Z,-0.19
2023-01-22T07:33:13.710Z,-0.12
2023-01-22T07:38:17.917Z,-0.16
2023-01-22T07:43:22.643Z,-0.14
2023-01-22T07:48:29.020Z,-0.05
2023-01-22T07:53:34.421Z,-0.14
2023-01-22T07:58:41.356Z,-0.16
2023-01-22T08:03:47.411Z,-0.14
2023-01-22T08:08:52.139Z,-0.05
2023-01-22T08:13:56.422Z,-0.06
2023-01-22T08:19:02.049Z,0.08
2023-01-22T08:24:08.348Z,0.20
2023-01-22T08:29:12.924Z,0.11
2023-01-22T08:34:19.310Z,0.07
2023-01-22T08:39:23.795Z,0.07
2023-01-22T08:44:28.358Z,0.18
2023-01-22T08:49:34.098Z,0.27
2023-01-22T08:54:38.719Z,0.37
2023-01-22T08:59:52.587Z,0.44
2023-01-22T09:05:06.956Z,0.42
2023-01-22T09:10:13.050Z,0.68
2023-01-22T09:15:17.701Z,0.57
2023-01-22T09:20:23.756Z,0.55
2023-01-22T09:25:29.258Z,0.61
2023-01-22T09:30:33.639Z,0.70
2023-01-22T09:35:39.757Z,0.64
2023-01-22T09:40:48.508Z,0.69
2023-01-22T09:45:56.288Z,0.80
2023-01-22T09:51:02.973Z,0.68
2023-01-22T09:56:15.543Z,0.50
2023-01-22T10:01:20.968Z,0.40
2023-01-22T10:06:28.380Z,0.46
2023-01-22T10:11:32.842Z,0.41
2023-01-22T10:16:38.317Z,0.42
2023-01-22T10:21:46.594Z,0.51
2023-01-22T10:26:54.663Z,0.60
2023-01-22T10:32:01.796Z,0.68
2023-01-22T10:37:17.750Z,0.80
2023-01-22T10:42:24.629Z,0.78
2023-01-22T10:47:29.467Z,1.03
2023-01-22T10:52:40.051Z,1.13
2023-01-22T10:57:49.963Z,1.06
2023-01-22T11:02:54.527Z,1.05
2023-01-22T11:08:12.433Z,0.90
2023-01-22T11:13:21.680Z,1.01
2023-01-22T11:18:36.374Z,1.02
2023-01-22T11:23:52.412Z,1.03
2023-01-22T11:29:09.840Z,0.93
2023-01-22T11:34:50.484Z,0.95
2023-01-22T11:40:18.289Z,0.96
2023-01-22T11:45:48.260Z,0.98
2023-01-22T11:51:01.074Z,1.01
2023-01-22T11:56:30.526Z,0.97
2023-01-22T12:02:03.692Z,0.95
2023-01-22T12:08:03.623Z,0.99
2023-01-22T12:13:26.767Z,1.05
2023-01-22T12:19:08.217Z,0.94
2023-01-22T12:24:23.093Z,0.92
2023-01-22T12:29:35.011Z,0.85
2023-01-22T12:34:48.324Z,0.98
2023-01-22T12:40:17.585Z,0.97
2023-01-22T12:45:30.455Z,0.94
2023-01-22T12:50:35.011Z,0.91
2023-01-22T12:55:43.920Z,0.93
2023-01-22T13:01:04.022Z,0.95
2023-01-22T13:06:22.776Z,0.91
2023-01-22T13:11:34.216Z,0.90
2023-01-22T13:16:41.657Z,0.94
2023-01-22T13:21:47.022Z,0.98
2023-01-22T13:26:55.415Z,0.99
2023-01-22T13:32:03.655Z,1.01
2023-01-22T13:37:19.313Z,0.96
2023-01-22T13:42:24.758Z,0.94
2023-01-22T13:47:34.271Z,0.93
2023-01-22T13:52:38.801Z,0.89
2023-01-22T13:57:46.607Z,0.89
2023-01-22T14:02:53.047Z,0.90
2023-01-22T14:08:07.261Z,0.92
2023-01-22T14:13:15.538Z,0.92
2023-01-22T14:18:21.744Z,0.95
2023-01-22T14:23:26.517Z,0.98
2023-01-22T14:28:32.301Z,0.93
2023-01-22T14:33:37.871Z,0.92
2023-01-22T14:38:42.529Z,0.87
2023-01-22T14:43:47.269Z,0.89
2023-01-22T14:48:53.208Z,0.87
2023-01-22T14:53:58.867Z,0.87
2023-01-22T14:59:04.595Z,0.85
2023-01-22T15:04:10.940Z,0.84
2023-01-22T15:09:15.383Z,0.85
2023-01-22T15:14:19.928Z,0.82
2023-01-22T15:19:26.077Z,0.83
2023-01-22T15:24:30.638Z,0.77
2023-01-22T15:29:34.940Z,0.80
2023-01-22T15:34:40.901Z,0.83
2023-01-22T15:39:45.126Z,0.79
2023-01-22T15:44:49.585Z,0.84
2023-01-22T15:49:55.308Z,0.84
2023-01-22T15:55:00.300Z,0.88
2023-01-22T16:00:07.036Z,0.87
2023-01-22T16:05:20.266Z,0.85
2023-01-22T16:10:24.544Z,0.83
2023-01-22T16:15:29.041Z,0.81
2023-01-22T16:20:34.595Z,0.82
2023-01-22T16:25:41.518Z,0.83
2023-01-22T16:30:46.005Z,0.90
2023-01-22T16:35:58.929Z,0.85
2023-01-22T16:41:28.695Z,0.81
2023-01-22T16:46:35.211Z,0.80
2023-01-22T16:51:44.200Z,0.80
2023-01-22T16:56:49.642Z,0.77
2023-01-22T17:01:55.098Z,0.84
2023-01-22T17:07:01.709Z,0.79
2023-01-22T17:12:08.471Z,0.82
2023-01-22T17:17:13.321Z,0.82
2023-01-22T17:22:19.283Z,0.82
2023-01-22T17:27:26.025Z,0.83
2023-01-22T17:32:30.833Z,0.83
2023-01-22T17:37:36.720Z,0.85
2023-01-22T17:42:41.355Z,0.85
2023-01-22T17:47:46.396Z,0.84
2023-01-22T17:52:52.513Z,0.85
2023-01-22T17:57:59.294Z,0.87
2023-01-22T18:03:03.677Z,0.79
2023-01-22T18:08:09.681Z,0.85
2023-01-22T18:13:14.360Z,0.93
2023-01-22T18:18:19.095Z,0.86
2023-01-22T18:23:24.926Z,0.83
2023-01-22T18:28:29.929Z,0.86
2023-01-22T18:33:36.020Z,0.80
2023-01-22T18:38:42.419Z,0.80
2023-01-22T18:43:50.872Z,0.81
2023-01-22T18:48:59.717Z,0.85
2023-01-22T18:54:06.523Z,0.88
2023-01-22T18:59:12.937Z,0.91
2023-01-22T19:04:20.740Z,0.91
2023-01-22T19:09:27.837Z,0.87
2023-01-22T19:14:32.819Z,0.93
2023-01-22T19:19:37.293Z,0.92
2023-01-22T19:24:43.788Z,0.94
2023-01-22T19:29:49.075Z,0.87
2023-01-22T19:34:53.510Z,0.88
2023-01-22T19:40:00.154Z,0.90
2023-01-22T19:45:04.774Z,0.93
2023-01-22T19:50:12.390Z,0.90
2023-01-22T19:55:20.216Z,0.93
2023-01-22T20:00:24.754Z,0.90
2023-01-22T20:05:28.992Z,0.84
2023-01-22T20:10:37.431Z,0.83
2023-01-22T20:15:43.780Z,0.90
2023-01-22T20:20:54.320Z,0.84
2023-01-22T20:26:02.109Z,0.93
2023-01-22T20:31:12.231Z,0.82
2023-01-22T20:36:17.675Z,0.80
2023-01-22T20:41:27.474Z,0.83
2023-01-22T20:46:32.219Z,0.79
2023-01-22T20:51:36.804Z,0.78
2023-01-22T20:56:42.807Z,0.74
2023-01-22T21:01:47.893Z,0.71
2023-01-22T21:06:52.573Z,0.73
2023-01-22T21:11:58.429Z,0.75
2023-01-22T21:17:02.959Z,0.74
2023-01-22T21:22:07.717Z,0.76
2023-01-22T21:27:13.478Z,0.74
2023-01-22T21:32:19.201Z,0.77
2023-01-22T21:37:23.900Z,0.73
2023-01-22T21:42:47.724Z,0.70
2023-01-22T21:47:52.671Z,0.72
2023-01-22T21:52:57.314Z,0.70
2023-01-22T21:58:03.350Z,0.67
2023-01-22T22:03:07.752Z,0.67
2023-01-22T22:08:12.549Z,0.66
2023-01-22T22:13:19.525Z,0.68
2023-01-22T22:18:24.216Z,0.71
2023-01-22T22:23:29.443Z,0.71
2023-01-22T22:28:36.569Z,0.69
2023-01-22T22:33:41.934Z,0.73
2023-01-22T22:38:46.746Z,0.72
2023-01-22T22:43:54.407Z,0.76
2023-01-22T22:49:01.363Z,0.78
2023-01-22T22:54:08.757Z,0.76
2023-01-22T22:59:16.474Z,0.77
2023-01-22T23:04:21.069Z,0.85
2023-01-22T23:09:25.905Z,0.91
2023-01-22T23:14:32.150Z,0.97
2023-01-22T23:19:36.649Z,0.88
2023-01-22T23:24:41.174Z,0.89
2023-01-22T23:29:46.814Z,1.04
2023-01-22T23:34:51.178Z,0.85
2023-01-22T23:39:55.784Z,0.92
2023-01-22T23:45:01.422Z,0.84
2023-01-22T23:50:07.183Z,0.81
2023-01-22T23:55:12.484Z,0.76
